Bay Bridge — 3FCS5 — position and weather

sailwx.info

Track history (hours):
 
Tides and Currents Weather Stations Pressure Air Temp Water Temp Dewpoint Dewpoint Depression Visibility Wind Speed Wind Dir Waves Ship Positions

Bay Bridge

Last reported at 2018-May-26 01:07 UTC. Time now 2018-May-26 04:29 UTC.
Position N 35°37' E 139°46'.

Length 267 m; draft 9.8 m.

Type: Cargo ship. MMSI: 354120000.

Date/timePositionNaut miles runAvg speedWind from/ knotsBaromVisibWave heightAir tempDewpointWater temp
2018-May-26 01:07N 35°37' E 139°46'0 0.0
2018-May-26 00:55N 35°37' E 139°46'0 0.0
2018-May-26 00:22N 35°37' E 139°46'0 0.0
2018-May-25 23:49N 35°37' E 139°46'0 0.0
2018-May-25 22:20N 35°37' E 139°46'1 2.3
2018-May-25 22:00N 35°36' E 139°47'713.0
2018-May-25 21:30N 35°32' E 139°52'510.4
2018-May-25 21:00N 35°27' E 139°49'613.1
2018-May-25 20:30N 35°22' E 139°45'611.7
2018-May-25 20:01N 35°16' E 139°46'611.9
2018-May-25 19:30N 35°10' E 139°47'4 8.4
2018-May-25 19:01N 35°06' E 139°46'510.0
2018-May-25 18:31N 35°01' E 139°43'5 9.9
2018-May-25 18:00N 34°56' E 139°43'510.9
2018-May-25 17:31N 34°51' E 139°46'510.4
2018-May-25 17:00N 34°48' E 139°51'  
2018-May-22 16:03N 33°49' E 135°01'0 9.8
2018-May-22 16:00N 33°50' E 135°01'7 9.1
2018-May-22 15:12N 33°57' E 134°59'2 9.8
2018-May-22 14:59N 33°59' E 134°59'5 9.9
2018-May-22 14:30N 34°04' E 134°59'510.2
2018-May-22 14:00N 34°09' E 134°58'5 9.8
2018-May-22 13:30N 34°13' E 134°58'714.0
2018-May-22 13:00N 34°20' E 134°59'816.5
2018-May-22 12:30N 34°27' E 135°05'816.7
2018-May-22 12:00N 34°34' E 135°11'713.3
2018-May-22 11:31N 34°39' E 135°16'2 2.4
2018-May-22 10:52N 34°41' E 135°16'0 0.0
2018-May-22 10:28N 34°41' E 135°16'0 0.0
2018-May-22 09:58N 34°41' E 135°16'0 0.0
2018-May-22 09:28N 34°41' E 135°16'0 0.0
2018-May-22 08:58N 34°41' E 135°16'0 0.0
2018-May-22 08:28N 34°41' E 135°16'0 0.0
2018-May-22 07:58N 34°41' E 135°16'0 0.0
2018-May-22 07:28N 34°41' E 135°16'0 0.0
2018-May-22 06:58N 34°41' E 135°16'0 0.0
2018-May-22 06:28N 34°41' E 135°16'0 0.0
2018-May-22 05:58N 34°41' E 135°16'0 0.0
2018-May-22 05:28N 34°41' E 135°16'0 0.0
2018-May-22 04:58N 34°41' E 135°16'0 0.0
2018-May-22 04:25N 34°41' E 135°16'0 0.0
2018-May-22 03:55N 34°41' E 135°16'0 0.1
2018-May-22 03:28N 34°41' E 135°16'0 0.0
2018-May-22 02:58N 34°41' E 135°16'0 0.0
2018-May-22 02:28N 34°41' E 135°16'0 0.0
2018-May-22 01:52N 34°41' E 135°16'0 0.0
2018-May-22 01:28N 34°41' E 135°16'0 0.0
2018-May-22 00:58N 34°41' E 135°16'0 0.0
2018-May-22 00:22N 34°41' E 135°16'0 0.0
2018-May-21 23:58N 34°41' E 135°16'0 0.0
2018-May-21 23:28N 34°41' E 135°16'0 0.0
2018-May-21 22:53N 34°41' E 135°16'1 1.9
2018-May-21 22:30N 34°41' E 135°16'4 7.3
2018-May-21 22:00N 34°37' E 135°19'612.5
2018-May-21 21:30N 34°32' E 135°14'612.8
2018-May-21 21:00N 34°27' E 135°09'612.7
2018-May-21 20:30N 34°23' E 135°04'815.6
2018-May-21 20:00N 34°16' E 134°59'815.1
2018-May-21 19:30N 34°09' E 134°60'1020.7
2018-May-21 19:00N 33°58' E 134°60'918.1
2018-May-21 18:30N 33°49' E 135°01'917.9
2018-May-21 18:00N 33°41' E 135°06'711.0
2018-May-21 17:19N 33°35' E 135°10'0 1.0
2018-May-21 16:50N 33°35' E 135°11'0 0.8
2018-May-21 16:14N 33°34' E 135°11'0 0.6
2018-May-21 15:41N 33°34' E 135°12'0 0.6
2018-May-21 15:29N 33°34' E 135°12'1 0.7
2018-May-21 14:38N 33°34' E 135°13'0 0.7
2018-May-21 14:29N 33°34' E 135°13'0 0.7
2018-May-21 13:47N 33°34' E 135°13'11 3.1
2018-May-21 10:13N 33°35' E 134°60'210.6
2018-May-21 10:00N 33°36' E 134°57'1 1.8
2018-May-21 09:29N 33°35' E 134°58'1 1.9
2018-May-21 08:49N 33°34' E 134°59'1 2.1
2018-May-21 08:15N 33°33' E 134°60'1 2.1
2018-May-21 07:58N 33°33' E 135°00'7 0.7
2018-May-20 22:46N 33°38' E 135°04'0 0.6
2018-May-20 22:01N 33°38' E 135°05'0 1.2
2018-May-20 21:46N 33°38' E 135°05'0 1.2
2018-May-20 21:30N 33°37' E 135°05'1 1.2
2018-May-20 20:55N 33°37' E 135°06'0 0.9
2018-May-20 20:28N 33°37' E 135°06'1 1.0
2018-May-20 19:52N 33°36' E 135°07'0 0.9
2018-May-20 19:28N 33°36' E 135°07'0 0.7
2018-May-20 18:58N 33°36' E 135°08'1 0.9
2018-May-20 18:10N 33°37' E 135°08'0 0.7
2018-May-20 17:52N 33°37' E 135°09'1 0.7
2018-May-20 17:10N 33°37' E 135°09'0 0.6
2018-May-20 16:46N 33°37' E 135°10'0 0.5
2018-May-20 16:22N 33°37' E 135°10'0 0.7
2018-May-20 15:55N 33°37' E 135°10'0 0.5
2018-May-20 15:28N 33°37' E 135°10'1 0.7
2018-May-20 14:28N 33°36' E 135°11'2 1.1
2018-May-20 12:46N 33°35' E 135°13'3 9.6
2018-May-20 12:25N 33°32' E 135°15'6 0.2
2018-May-19 10:17N 33°38' E 135°11'513.8
2018-May-19 09:54N 33°34' E 135°07'6 1.9
2018-May-19 06:49N 33°39' E 135°10'0 1.2
2018-May-19 06:30N 33°40' E 135°10'713.7
2018-May-19 06:00N 33°33' E 135°13'4 0.6
2018-May-19 00:06N 33°37' E 135°13'1 7.9
2018-May-19 00:00N 33°36' E 135°13'1 0.1
2018-May-18 19:00N 33°36' E 135°13'5 0.1
2018-May-17 07:46N 33°40' E 135°10'5 0.4
2018-May-16 18:11N 33°35' E 135°13'10 0.7
2018-May-16 05:17N 33°26' E 135°09'915.7
2018-May-16 04:42N 33°19' E 135°03'  
Track history (hours):
 
Tides and Currents Weather Stations Pressure Air Temp Water Temp Dewpoint Dewpoint Depression Visibility Wind Speed Wind Dir Waves Ship Positions

Bay Bridge

Last reported at 2018-May-26 01:07 UTC. Time now 2018-May-26 04:29 UTC.
Position N 35°37' E 139°46'.

Length 267 m; draft 9.8 m.

Type: Cargo ship. MMSI: 354120000.

Date/timePositionNaut miles runAvg speedWind from/ knotsBaromVisibWave heightAir tempDewpointWater temp
2018-May-26 01:07N 35°37' E 139°46'0 0.0
2018-May-26 00:55N 35°37' E 139°46'0 0.0
2018-May-26 00:22N 35°37' E 139°46'0 0.0
2018-May-25 23:49N 35°37' E 139°46'0 0.0
2018-May-25 22:20N 35°37' E 139°46'1 2.3
2018-May-25 22:00N 35°36' E 139°47'713.0
2018-May-25 21:30N 35°32' E 139°52'510.4
2018-May-25 21:00N 35°27' E 139°49'613.1
2018-May-25 20:30N 35°22' E 139°45'611.7
2018-May-25 20:01N 35°16' E 139°46'611.9
2018-May-25 19:30N 35°10' E 139°47'4 8.4
2018-May-25 19:01N 35°06' E 139°46'510.0
2018-May-25 18:31N 35°01' E 139°43'5 9.9
2018-May-25 18:00N 34°56' E 139°43'510.9
2018-May-25 17:31N 34°51' E 139°46'510.4
2018-May-25 17:00N 34°48' E 139°51'  
2018-May-22 16:03N 33°49' E 135°01'0 9.8
2018-May-22 16:00N 33°50' E 135°01'7 9.1
2018-May-22 15:12N 33°57' E 134°59'2 9.8
2018-May-22 14:59N 33°59' E 134°59'5 9.9
2018-May-22 14:30N 34°04' E 134°59'510.2
2018-May-22 14:00N 34°09' E 134°58'5 9.8
2018-May-22 13:30N 34°13' E 134°58'714.0
2018-May-22 13:00N 34°20' E 134°59'816.5
2018-May-22 12:30N 34°27' E 135°05'816.7
2018-May-22 12:00N 34°34' E 135°11'713.3
2018-May-22 11:31N 34°39' E 135°16'2 2.4
2018-May-22 10:52N 34°41' E 135°16'0 0.0
2018-May-22 10:28N 34°41' E 135°16'0 0.0
2018-May-22 09:58N 34°41' E 135°16'0 0.0
2018-May-22 09:28N 34°41' E 135°16'0 0.0
2018-May-22 08:58N 34°41' E 135°16'0 0.0
2018-May-22 08:28N 34°41' E 135°16'0 0.0
2018-May-22 07:58N 34°41' E 135°16'0 0.0
2018-May-22 07:28N 34°41' E 135°16'0 0.0
2018-May-22 06:58N 34°41' E 135°16'0 0.0
2018-May-22 06:28N 34°41' E 135°16'0 0.0
2018-May-22 05:58N 34°41' E 135°16'0 0.0
2018-May-22 05:28N 34°41' E 135°16'0 0.0
2018-May-22 04:58N 34°41' E 135°16'0 0.0
2018-May-22 04:25N 34°41' E 135°16'0 0.0
2018-May-22 03:55N 34°41' E 135°16'0 0.1
2018-May-22 03:28N 34°41' E 135°16'0 0.0
2018-May-22 02:58N 34°41' E 135°16'0 0.0
2018-May-22 02:28N 34°41' E 135°16'0 0.0
2018-May-22 01:52N 34°41' E 135°16'0 0.0
2018-May-22 01:28N 34°41' E 135°16'0 0.0
2018-May-22 00:58N 34°41' E 135°16'0 0.0
2018-May-22 00:22N 34°41' E 135°16'0 0.0
2018-May-21 23:58N 34°41' E 135°16'0 0.0
2018-May-21 23:28N 34°41' E 135°16'0 0.0
2018-May-21 22:53N 34°41' E 135°16'1 1.9
2018-May-21 22:30N 34°41' E 135°16'4 7.3
2018-May-21 22:00N 34°37' E 135°19'612.5
2018-May-21 21:30N 34°32' E 135°14'612.8
2018-May-21 21:00N 34°27' E 135°09'612.7
2018-May-21 20:30N 34°23' E 135°04'815.6
2018-May-21 20:00N 34°16' E 134°59'815.1
2018-May-21 19:30N 34°09' E 134°60'1020.7
2018-May-21 19:00N 33°58' E 134°60'918.1
2018-May-21 18:30N 33°49' E 135°01'917.9
2018-May-21 18:00N 33°41' E 135°06'711.0
2018-May-21 17:19N 33°35' E 135°10'0 1.0
2018-May-21 16:50N 33°35' E 135°11'0 0.8
2018-May-21 16:14N 33°34' E 135°11'0 0.6
2018-May-21 15:41N 33°34' E 135°12'0 0.6
2018-May-21 15:29N 33°34' E 135°12'1 0.7
2018-May-21 14:38N 33°34' E 135°13'0 0.7
2018-May-21 14:29N 33°34' E 135°13'0 0.7
2018-May-21 13:47N 33°34' E 135°13'11 3.1
2018-May-21 10:13N 33°35' E 134°60'210.6
2018-May-21 10:00N 33°36' E 134°57'1 1.8
2018-May-21 09:29N 33°35' E 134°58'1 1.9
2018-May-21 08:49N 33°34' E 134°59'1 2.1
2018-May-21 08:15N 33°33' E 134°60'1 2.1
2018-May-21 07:58N 33°33' E 135°00'7 0.7
2018-May-20 22:46N 33°38' E 135°04'0 0.6
2018-May-20 22:01N 33°38' E 135°05'0 1.2
2018-May-20 21:46N 33°38' E 135°05'0 1.2
2018-May-20 21:30N 33°37' E 135°05'1 1.2
2018-May-20 20:55N 33°37' E 135°06'0 0.9
2018-May-20 20:28N 33°37' E 135°06'1 1.0
2018-May-20 19:52N 33°36' E 135°07'0 0.9
2018-May-20 19:28N 33°36' E 135°07'0 0.7
2018-May-20 18:58N 33°36' E 135°08'1 0.9
2018-May-20 18:10N 33°37' E 135°08'0 0.7
2018-May-20 17:52N 33°37' E 135°09'1 0.7
2018-May-20 17:10N 33°37' E 135°09'0 0.6
2018-May-20 16:46N 33°37' E 135°10'0 0.5
2018-May-20 16:22N 33°37' E 135°10'0 0.7
2018-May-20 15:55N 33°37' E 135°10'0 0.5
2018-May-20 15:28N 33°37' E 135°10'1 0.7
2018-May-20 14:28N 33°36' E 135°11'2 1.1
2018-May-20 12:46N 33°35' E 135°13'3 9.6
2018-May-20 12:25N 33°32' E 135°15'6 0.2
2018-May-19 10:17N 33°38' E 135°11'513.8
2018-May-19 09:54N 33°34' E 135°07'6 1.9
2018-May-19 06:49N 33°39' E 135°10'0 1.2
2018-May-19 06:30N 33°40' E 135°10'713.7
2018-May-19 06:00N 33°33' E 135°13'4 0.6
2018-May-19 00:06N 33°37' E 135°13'1 7.9
2018-May-19 00:00N 33°36' E 135°13'1 0.1
2018-May-18 19:00N 33°36' E 135°13'5 0.1
2018-May-17 07:46N 33°40' E 135°10'5 0.4
2018-May-16 18:11N 33°35' E 135°13'10 0.7
2018-May-16 05:17N 33°26' E 135°09'915.7
2018-May-16 04:42N 33°19' E 135°03'  

Dump ship's entire track history